Terminal Aerodrome Forecast
Issued by NWS

Home | Current Version | Previous Version | Graphics & Text | Print | Product List | Glossary Off
Versions: 1 2 3 4 5 6 7 8 9 10 11 12 13 14 15

000
FTUS43 KTOP 290319 AAA
TAFFOE
TAF AMD
KFOE 290319Z 2903/2924 18014KT P6SM FEW250 WS020/20050KT
     FM291000 19013KT P6SM VCTS BKN080CB WS020/21050KT
     FM291300 18011KT P6SM VCTS BKN080CB
     FM291500 19012G20KT P6SM BKN150=

USA.gov is the U.S. government's official web portal to all federal, state and local government web resources and services.